sensor_id;sensor_type;location;lat;lon;timestamp;temperature;humidity
72650;SHT31;61467;50.674;4.618;2023-04-28T00:00:35;12.60;66.01
72650;SHT31;61467;50.674;4.618;2023-04-28T00:03:02;12.67;66.19
72650;SHT31;61467;50.674;4.618;2023-04-28T00:05:29;12.73;66.68
72650;SHT31;61467;50.674;4.618;2023-04-28T00:07:57;12.48;67.06
72650;SHT31;61467;50.674;4.618;2023-04-28T00:10:24;12.45;67.09
72650;SHT31;61467;50.674;4.618;2023-04-28T00:12:51;12.43;67.26
72650;SHT31;61467;50.674;4.618;2023-04-28T00:15:17;12.53;67.47
72650;SHT31;61467;50.674;4.618;2023-04-28T00:17:44;12.46;66.97
72650;SHT31;61467;50.674;4.618;2023-04-28T00:20:11;12.53;66.54
72650;SHT31;61467;50.674;4.618;2023-04-28T00:22:38;12.49;66.76
72650;SHT31;61467;50.674;4.618;2023-04-28T00:25:07;12.53;66.81
72650;SHT31;61467;50.674;4.618;2023-04-28T00:27:34;12.56;67.18
72650;SHT31;61467;50.674;4.618;2023-04-28T00:30:01;12.55;67.08
72650;SHT31;61467;50.674;4.618;2023-04-28T00:32:28;12.53;66.48
72650;SHT31;61467;50.674;4.618;2023-04-28T00:34:56;12.34;66.88
72650;SHT31;61467;50.674;4.618;2023-04-28T00:37:23;12.24;67.26
72650;SHT31;61467;50.674;4.618;2023-04-28T00:39:53;12.28;67.60
72650;SHT31;61467;50.674;4.618;2023-04-28T00:42:22;12.35;67.76
72650;SHT31;61467;50.674;4.618;2023-04-28T00:44:48;12.21;68.08
72650;SHT31;61467;50.674;4.618;2023-04-28T00:47:16;12.22;68.15
72650;SHT31;61467;50.674;4.618;2023-04-28T00:49:43;12.08;68.57
72650;SHT31;61467;50.674;4.618;2023-04-28T00:52:10;12.15;68.71
72650;SHT31;61467;50.674;4.618;2023-04-28T00:54:37;12.21;67.99
72650;SHT31;61467;50.674;4.618;2023-04-28T00:57:04;12.24;68.06
72650;SHT31;61467;50.674;4.618;2023-04-28T00:59:32;12.24;68.19
72650;SHT31;61467;50.674;4.618;2023-04-28T01:01:59;12.25;68.61
72650;SHT31;61467;50.674;4.618;2023-04-28T01:04:28;12.26;68.64
72650;SHT31;61467;50.674;4.618;2023-04-28T01:06:55;12.28;68.81
72650;SHT31;61467;50.674;4.618;2023-04-28T01:09:22;12.24;69.21
72650;SHT31;61467;50.674;4.618;2023-04-28T01:11:49;12.28;69.51
72650;SHT31;61467;50.674;4.618;2023-04-28T01:14:15;12.31;69.62
72650;SHT31;61467;50.674;4.618;2023-04-28T01:16:44;12.32;69.67
72650;SHT31;61467;50.674;4.618;2023-04-28T01:19:17;12.26;69.89
72650;SHT31;61467;50.674;4.618;2023-04-28T01:21:46;12.25;70.13
72650;SHT31;61467;50.674;4.618;2023-04-28T01:24:14;12.18;70.34
72650;SHT31;61467;50.674;4.618;2023-04-28T01:26:42;12.20;70.30
72650;SHT31;61467;50.674;4.618;2023-04-28T01:29:10;12.24;69.97
72650;SHT31;61467;50.674;4.618;2023-04-28T01:31:36;12.26;70.47
72650;SHT31;61467;50.674;4.618;2023-04-28T01:34:03;12.31;70.05
72650;SHT31;61467;50.674;4.618;2023-04-28T01:36:30;12.21;70.68
72650;SHT31;61467;50.674;4.618;2023-04-28T01:38:58;12.25;70.86
72650;SHT31;61467;50.674;4.618;2023-04-28T01:41:26;12.25;70.19
72650;SHT31;61467;50.674;4.618;2023-04-28T01:43:53;12.34;70.76
72650;SHT31;61467;50.674;4.618;2023-04-28T01:46:20;12.35;70.67
72650;SHT31;61467;50.674;4.618;2023-04-28T01:48:47;12.35;70.97
72650;SHT31;61467;50.674;4.618;2023-04-28T01:51:13;12.38;70.71
72650;SHT31;61467;50.674;4.618;2023-04-28T01:53:40;12.36;70.54
72650;SHT31;61467;50.674;4.618;2023-04-28T01:56:07;12.34;71.12
72650;SHT31;61467;50.674;4.618;2023-04-28T01:58:35;12.36;70.87
72650;SHT31;61467;50.674;4.618;2023-04-28T02:01:02;12.45;70.61
72650;SHT31;61467;50.674;4.618;2023-04-28T02:03:29;12.39;71.11
72650;SHT31;61467;50.674;4.618;2023-04-28T02:05:56;12.48;70.93
72650;SHT31;61467;50.674;4.618;2023-04-28T02:08:23;12.46;71.04
72650;SHT31;61467;50.674;4.618;2023-04-28T02:10:50;12.49;71.71
72650;SHT31;61467;50.674;4.618;2023-04-28T02:13:17;12.36;72.20
72650;SHT31;61467;50.674;4.618;2023-04-28T02:15:45;12.38;72.01
72650;SHT31;61467;50.674;4.618;2023-04-28T02:18:12;12.39;71.95
72650;SHT31;61467;50.674;4.618;2023-04-28T02:20:39;12.38;71.68
72650;SHT31;61467;50.674;4.618;2023-04-28T02:23:06;12.36;71.65
72650;SHT31;61467;50.674;4.618;2023-04-28T02:25:33;12.35;72.15
72650;SHT31;61467;50.674;4.618;2023-04-28T02:27:59;12.32;71.94
72650;SHT31;61467;50.674;4.618;2023-04-28T02:30:26;12.34;71.97
72650;SHT31;61467;50.674;4.618;2023-04-28T02:32:54;12.35;72.34
72650;SHT31;61467;50.674;4.618;2023-04-28T02:35:21;12.38;72.33
72650;SHT31;61467;50.674;4.618;2023-04-28T02:37:48;12.35;72.86
72650;SHT31;61467;50.674;4.618;2023-04-28T02:40:15;12.29;73.71
72650;SHT31;61467;50.674;4.618;2023-04-28T02:42:42;12.21;74.33
72650;SHT31;61467;50.674;4.618;2023-04-28T02:45:09;12.21;74.78
72650;SHT31;61467;50.674;4.618;2023-04-28T02:47:36;12.15;75.48
72650;SHT31;61467;50.674;4.618;2023-04-28T02:50:06;12.12;76.57
72650;SHT31;61467;50.674;4.618;2023-04-28T02:52:33;12.06;77.22
72650;SHT31;61467;50.674;4.618;2023-04-28T02:55:00;12.04;77.16
72650;SHT31;61467;50.674;4.618;2023-04-28T02:57:28;12.04;77.52
72650;SHT31;61467;50.674;4.618;2023-04-28T02:59:54;11.91;78.34
72650;SHT31;61467;50.674;4.618;2023-04-28T03:02:21;11.97;78.64
72650;SHT31;61467;50.674;4.618;2023-04-28T03:04:48;11.88;79.46
72650;SHT31;61467;50.674;4.618;2023-04-28T03:07:16;11.90;80.28
72650;SHT31;61467;50.674;4.618;2023-04-28T03:09:43;11.84;80.85
72650;SHT31;61467;50.674;4.618;2023-04-28T03:12:10;11.94;81.44
72650;SHT31;61467;50.674;4.618;2023-04-28T03:14:37;11.98;81.26
72650;SHT31;61467;50.674;4.618;2023-04-28T03:17:04;11.98;82.03
72650;SHT31;61467;50.674;4.618;2023-04-28T03:19:31;12.11;81.62
72650;SHT31;61467;50.674;4.618;2023-04-28T03:21:58;11.95;82.46
72650;SHT31;61467;50.674;4.618;2023-04-28T03:24:26;12.01;82.82
72650;SHT31;61467;50.674;4.618;2023-04-28T03:26:53;11.97;83.18
72650;SHT31;61467;50.674;4.618;2023-04-28T03:29:20;12.11;83.20
72650;SHT31;61467;50.674;4.618;2023-04-28T03:31:48;12.15;82.83
72650;SHT31;61467;50.674;4.618;2023-04-28T03:34:16;12.28;83.03
72650;SHT31;61467;50.674;4.618;2023-04-28T03:36:42;12.17;83.33
72650;SHT31;61467;50.674;4.618;2023-04-28T03:39:09;12.22;83.28
72650;SHT31;61467;50.674;4.618;2023-04-28T03:41:38;12.21;83.58
72650;SHT31;61467;50.674;4.618;2023-04-28T03:44:05;12.29;83.77
72650;SHT31;61467;50.674;4.618;2023-04-28T03:46:31;12.35;83.99
72650;SHT31;61467;50.674;4.618;2023-04-28T03:48:59;12.41;83.67
72650;SHT31;61467;50.674;4.618;2023-04-28T03:51:26;12.45;83.55
72650;SHT31;61467;50.674;4.618;2023-04-28T03:53:53;12.50;83.58
72650;SHT31;61467;50.674;4.618;2023-04-28T03:56:20;12.49;83.66
72650;SHT31;61467;50.674;4.618;2023-04-28T03:58:48;12.63;83.40
72650;SHT31;61467;50.674;4.618;2023-04-28T04:01:15;12.62;83.31
72650;SHT31;61467;50.674;4.618;2023-04-28T04:03:42;12.72;82.87
72650;SHT31;61467;50.674;4.618;2023-04-28T04:06:09;12.70;82.99
72650;SHT31;61467;50.674;4.618;2023-04-28T04:08:36;12.69;83.08
72650;SHT31;61467;50.674;4.618;2023-04-28T04:11:03;12.64;83.61
72650;SHT31;61467;50.674;4.618;2023-04-28T04:13:30;12.89;81.85
72650;SHT31;61467;50.674;4.618;2023-04-28T04:15:58;13.07;80.60
72650;SHT31;61467;50.674;4.618;2023-04-28T04:18:25;13.28;79.27
72650;SHT31;61467;50.674;4.618;2023-04-28T04:20:52;13.42;80.18
72650;SHT31;61467;50.674;4.618;2023-04-28T04:23:20;13.27;81.27
72650;SHT31;61467;50.674;4.618;2023-04-28T04:25:47;13.30;81.03
72650;SHT31;61467;50.674;4.618;2023-04-28T04:28:14;13.18;81.86
72650;SHT31;61467;50.674;4.618;2023-04-28T04:30:41;13.23;82.24
72650;SHT31;61467;50.674;4.618;2023-04-28T04:33:10;13.21;82.26
72650;SHT31;61467;50.674;4.618;2023-04-28T04:35:37;13.03;82.92
72650;SHT31;61467;50.674;4.618;2023-04-28T04:38:04;13.07;83.60
72650;SHT31;61467;50.674;4.618;2023-04-28T04:40:31;13.02;83.55
72650;SHT31;61467;50.674;4.618;2023-04-28T04:42:59;12.89;84.32
72650;SHT31;61467;50.674;4.618;2023-04-28T04:45:26;13.13;84.10
72650;SHT31;61467;50.674;4.618;2023-04-28T04:47:53;13.03;84.71
72650;SHT31;61467;50.674;4.618;2023-04-28T04:50:21;13.03;84.71
72650;SHT31;61467;50.674;4.618;2023-04-28T04:52:48;12.96;85.43
72650;SHT31;61467;50.674;4.618;2023-04-28T04:55:16;13.17;83.11
72650;SHT31;61467;50.674;4.618;2023-04-28T04:57:43;13.47;82.53
72650;SHT31;61467;50.674;4.618;2023-04-28T05:00:11;13.64;81.85
72650;SHT31;61467;50.674;4.618;2023-04-28T05:02:38;13.73;81.98
72650;SHT31;61467;50.674;4.618;2023-04-28T05:05:05;13.85;81.36
72650;SHT31;61467;50.674;4.618;2023-04-28T05:07:34;14.01;79.88
72650;SHT31;61467;50.674;4.618;2023-04-28T05:10:01;13.95;81.62
72650;SHT31;61467;50.674;4.618;2023-04-28T05:12:28;13.89;82.47
72650;SHT31;61467;50.674;4.618;2023-04-28T05:14:55;13.76;83.34
72650;SHT31;61467;50.674;4.618;2023-04-28T05:17:22;13.66;83.80
72650;SHT31;61467;50.674;4.618;2023-04-28T05:19:49;13.75;84.10
72650;SHT31;61467;50.674;4.618;2023-04-28T05:22:16;13.57;85.42
72650;SHT31;61467;50.674;4.618;2023-04-28T05:24:44;13.52;85.78
72650;SHT31;61467;50.674;4.618;2023-04-28T05:27:11;13.35;86.53
72650;SHT31;61467;50.674;4.618;2023-04-28T05:29:37;13.50;86.25
72650;SHT31;61467;50.674;4.618;2023-04-28T05:32:04;13.47;86.16
72650;SHT31;61467;50.674;4.618;2023-04-28T05:34:31;13.62;86.44
72650;SHT31;61467;50.674;4.618;2023-04-28T05:36:58;13.47;86.85
72650;SHT31;61467;50.674;4.618;2023-04-28T05:39:25;13.50;86.99
72650;SHT31;61467;50.674;4.618;2023-04-28T05:41:53;13.57;87.02
72650;SHT31;61467;50.674;4.618;2023-04-28T05:44:20;13.55;87.09
72650;SHT31;61467;50.674;4.618;2023-04-28T05:46:47;13.61;87.11
72650;SHT31;61467;50.674;4.618;2023-04-28T05:49:13;13.58;87.03
72650;SHT31;61467;50.674;4.618;2023-04-28T05:51:40;13.68;87.13
72650;SHT31;61467;50.674;4.618;2023-04-28T05:54:07;13.75;86.91
72650;SHT31;61467;50.674;4.618;2023-04-28T05:56:34;13.64;87.32
72650;SHT31;61467;50.674;4.618;2023-04-28T05:59:02;13.73;87.11
72650;SHT31;61467;50.674;4.618;2023-04-28T06:01:29;13.75;87.26
72650;SHT31;61467;50.674;4.618;2023-04-28T06:03:56;13.85;87.17
72650;SHT31;61467;50.674;4.618;2023-04-28T06:06:23;13.93;86.83
72650;SHT31;61467;50.674;4.618;2023-04-28T06:08:50;13.85;86.97
72650;SHT31;61467;50.674;4.618;2023-04-28T06:11:17;13.96;86.59
72650;SHT31;61467;50.674;4.618;2023-04-28T06:13:46;13.90;87.24
72650;SHT31;61467;50.674;4.618;2023-04-28T06:16:15;13.86;87.24
72650;SHT31;61467;50.674;4.618;2023-04-28T06:18:42;13.86;87.24
72650;SHT31;61467;50.674;4.618;2023-04-28T06:21:09;14.02;86.89
72650;SHT31;61467;50.674;4.618;2023-04-28T06:23:36;14.13;86.38
72650;SHT31;61467;50.674;4.618;2023-04-28T06:26:04;14.17;86.57
72650;SHT31;61467;50.674;4.618;2023-04-28T06:28:32;14.17;86.90
72650;SHT31;61467;50.674;4.618;2023-04-28T06:30:59;13.99;87.21
72650;SHT31;61467;50.674;4.618;2023-04-28T06:33:27;14.06;87.03
72650;SHT31;61467;50.674;4.618;2023-04-28T06:35:54;13.93;87.65
72650;SHT31;61467;50.674;4.618;2023-04-28T06:38:21;13.81;88.08
72650;SHT31;61467;50.674;4.618;2023-04-28T06:40:47;13.87;88.26
72650;SHT31;61467;50.674;4.618;2023-04-28T06:43:14;13.86;88.45
72650;SHT31;61467;50.674;4.618;2023-04-28T06:45:41;13.99;88.12
72650;SHT31;61467;50.674;4.618;2023-04-28T06:48:08;14.13;87.29
72650;SHT31;61467;50.674;4.618;2023-04-28T06:50:37;14.08;87.38
72650;SHT31;61467;50.674;4.618;2023-04-28T06:53:04;13.99;87.82
72650;SHT31;61467;50.674;4.618;2023-04-28T06:55:32;14.22;87.40
72650;SHT31;61467;50.674;4.618;2023-04-28T06:57:59;14.09;87.33
72650;SHT31;61467;50.674;4.618;2023-04-28T07:00:26;14.16;87.34
72650;SHT31;61467;50.674;4.618;2023-04-28T07:02:52;14.19;86.98
72650;SHT31;61467;50.674;4.618;2023-04-28T07:05:19;14.16;87.56
72650;SHT31;61467;50.674;4.618;2023-04-28T07:07:47;14.20;87.51
72650;SHT31;61467;50.674;4.618;2023-04-28T07:10:14;14.19;87.08
72650;SHT31;61467;50.674;4.618;2023-04-28T07:12:41;14.38;86.74
72650;SHT31;61467;50.674;4.618;2023-04-28T07:15:09;14.38;86.71
72650;SHT31;61467;50.674;4.618;2023-04-28T07:17:36;14.38;86.25
72650;SHT31;61467;50.674;4.618;2023-04-28T07:20:04;14.26;87.06
72650;SHT31;61467;50.674;4.618;2023-04-28T07:22:31;14.12;87.43
72650;SHT31;61467;50.674;4.618;2023-04-28T07:24:59;14.45;86.56
72650;SHT31;61467;50.674;4.618;2023-04-28T07:27:26;14.43;86.24
72650;SHT31;61467;50.674;4.618;2023-04-28T07:29:53;14.34;86.84
72650;SHT31;61467;50.674;4.618;2023-04-28T07:32:21;14.44;87.06
72650;SHT31;61467;50.674;4.618;2023-04-28T07:34:48;14.67;86.26
72650;SHT31;61467;50.674;4.618;2023-04-28T07:37:15;14.45;86.93
72650;SHT31;61467;50.674;4.618;2023-04-28T07:39:42;14.64;86.55
72650;SHT31;61467;50.674;4.618;2023-04-28T07:42:10;14.48;86.78
72650;SHT31;61467;50.674;4.618;2023-04-28T07:44:37;14.54;86.36
72650;SHT31;61467;50.674;4.618;2023-04-28T07:47:04;14.67;86.47
72650;SHT31;61467;50.674;4.618;2023-04-28T07:49:31;14.82;86.21
72650;SHT31;61467;50.674;4.618;2023-04-28T07:51:58;15.01;84.97
72650;SHT31;61467;50.674;4.618;2023-04-28T07:54:24;14.82;85.85
72650;SHT31;61467;50.674;4.618;2023-04-28T07:56:51;14.82;86.04
72650;SHT31;61467;50.674;4.618;2023-04-28T07:59:19;14.92;86.35
72650;SHT31;61467;50.674;4.618;2023-04-28T08:01:46;14.94;85.97
72650;SHT31;61467;50.674;4.618;2023-04-28T08:04:13;15.05;86.21
72650;SHT31;61467;50.674;4.618;2023-04-28T08:06:40;15.21;85.86
72650;SHT31;61467;50.674;4.618;2023-04-28T08:09:07;15.12;85.80
72650;SHT31;61467;50.674;4.618;2023-04-28T08:11:34;14.91;85.63
72650;SHT31;61467;50.674;4.618;2023-04-28T08:14:00;14.98;85.89
72650;SHT31;61467;50.674;4.618;2023-04-28T08:16:29;15.13;85.63
72650;SHT31;61467;50.674;4.618;2023-04-28T08:18:57;15.43;84.82
72650;SHT31;61467;50.674;4.618;2023-04-28T08:21:24;15.43;84.75
72650;SHT31;61467;50.674;4.618;2023-04-28T08:23:51;15.43;85.17
72650;SHT31;61467;50.674;4.618;2023-04-28T08:26:18;15.59;84.58
72650;SHT31;61467;50.674;4.618;2023-04-28T08:28:45;15.71;84.55
72650;SHT31;61467;50.674;4.618;2023-04-28T08:31:12;15.89;84.29
72650;SHT31;61467;50.674;4.618;2023-04-28T08:33:40;16.00;83.24
72650;SHT31;61467;50.674;4.618;2023-04-28T08:36:09;15.81;83.59
72650;SHT31;61467;50.674;4.618;2023-04-28T08:38:39;15.79;82.81
72650;SHT31;61467;50.674;4.618;2023-04-28T08:41:06;15.74;83.59
72650;SHT31;61467;50.674;4.618;2023-04-28T08:43:34;15.74;83.61
72650;SHT31;61467;50.674;4.618;2023-04-28T08:46:05;15.87;82.76
72650;SHT31;61467;50.674;4.618;2023-04-28T08:48:39;15.74;82.25
72650;SHT31;61467;50.674;4.618;2023-04-28T08:51:07;15.94;82.22
72650;SHT31;61467;50.674;4.618;2023-04-28T08:53:37;15.77;82.47
72650;SHT31;61467;50.674;4.618;2023-04-28T08:56:05;16.01;82.53
72650;SHT31;61467;50.674;4.618;2023-04-28T08:58:34;15.86;81.73
72650;SHT31;61467;50.674;4.618;2023-04-28T09:01:01;15.89;82.03
72650;SHT31;61467;50.674;4.618;2023-04-28T09:03:29;15.86;82.03
72650;SHT31;61467;50.674;4.618;2023-04-28T09:05:58;15.98;81.80
72650;SHT31;61467;50.674;4.618;2023-04-28T09:08:25;15.86;82.19
72650;SHT31;61467;50.674;4.618;2023-04-28T09:11:05;15.98;82.70
72650;SHT31;61467;50.674;4.618;2023-04-28T09:13:33;15.94;82.92
72650;SHT31;61467;50.674;4.618;2023-04-28T09:16:00;16.08;82.49
72650;SHT31;61467;50.674;4.618;2023-04-28T09:18:28;16.05;82.11
72650;SHT31;61467;50.674;4.618;2023-04-28T09:21:05;16.05;82.19
72650;SHT31;61467;50.674;4.618;2023-04-28T09:23:32;16.07;82.37
72650;SHT31;61467;50.674;4.618;2023-04-28T09:26:01;15.91;82.33
72650;SHT31;61467;50.674;4.618;2023-04-28T09:28:28;15.97;81.94
72650;SHT31;61467;50.674;4.618;2023-04-28T09:30:55;15.77;81.98
72650;SHT31;61467;50.674;4.618;2023-04-28T09:33:21;15.96;81.50
72650;SHT31;61467;50.674;4.618;2023-04-28T09:35:49;16.10;81.52
72650;SHT31;61467;50.674;4.618;2023-04-28T09:38:18;16.00;81.34
72650;SHT31;61467;50.674;4.618;2023-04-28T09:40:53;15.86;80.96
72650;SHT31;61467;50.674;4.618;2023-04-28T09:43:24;16.01;80.64
72650;SHT31;61467;50.674;4.618;2023-04-28T09:45:51;16.24;80.66
72650;SHT31;61467;50.674;4.618;2023-04-28T09:48:26;16.32;80.75
72650;SHT31;61467;50.674;4.618;2023-04-28T09:50:53;16.55;80.41
72650;SHT31;61467;50.674;4.618;2023-04-28T09:53:22;16.86;79.98
72650;SHT31;61467;50.674;4.618;2023-04-28T09:55:51;17.09;79.72
72650;SHT31;61467;50.674;4.618;2023-04-28T09:58:19;17.00;77.55
72650;SHT31;61467;50.674;4.618;2023-04-28T10:00:48;17.10;77.91
72650;SHT31;61467;50.674;4.618;2023-04-28T10:03:17;17.19;76.89
72650;SHT31;61467;50.674;4.618;2023-04-28T10:05:46;17.30;75.80
72650;SHT31;61467;50.674;4.618;2023-04-28T10:08:13;17.14;76.67
72650;SHT31;61467;50.674;4.618;2023-04-28T10:10:42;17.16;76.01
72650;SHT31;61467;50.674;4.618;2023-04-28T10:13:10;17.21;75.63
72650;SHT31;61467;50.674;4.618;2023-04-28T10:15:37;17.13;76.03
72650;SHT31;61467;50.674;4.618;2023-04-28T10:18:05;17.04;76.14
72650;SHT31;61467;50.674;4.618;2023-04-28T10:20:33;17.19;75.46
72650;SHT31;61467;50.674;4.618;2023-04-28T10:23:16;17.34;76.02
72650;SHT31;61467;50.674;4.618;2023-04-28T10:25:55;17.68;74.96
72650;SHT31;61467;50.674;4.618;2023-04-28T10:28:24;17.88;74.43
72650;SHT31;61467;50.674;4.618;2023-04-28T10:31:11;18.06;73.33
72650;SHT31;61467;50.674;4.618;2023-04-28T10:33:38;17.81;73.40
72650;SHT31;61467;50.674;4.618;2023-04-28T10:36:06;17.77;72.48
72650;SHT31;61467;50.674;4.618;2023-04-28T10:38:33;17.81;73.52
72650;SHT31;61467;50.674;4.618;2023-04-28T10:41:04;17.82;72.69
72650;SHT31;61467;50.674;4.618;2023-04-28T10:43:38;18.03;74.38
72650;SHT31;61467;50.674;4.618;2023-04-28T10:46:08;17.99;72.37
72650;SHT31;61467;50.674;4.618;2023-04-28T10:48:56;17.88;72.42
72650;SHT31;61467;50.674;4.618;2023-04-28T10:51:30;17.92;72.09
72650;SHT31;61467;50.674;4.618;2023-04-28T10:54:13;18.01;72.47
72650;SHT31;61467;50.674;4.618;2023-04-28T10:57:19;18.16;72.47
72650;SHT31;61467;50.674;4.618;2023-04-28T10:59:49;17.72;72.49
72650;SHT31;61467;50.674;4.618;2023-04-28T11:02:38;17.75;73.37
72650;SHT31;61467;50.674;4.618;2023-04-28T11:05:16;18.02;72.96
72650;SHT31;61467;50.674;4.618;2023-04-28T11:11:17;18.60;69.80
72650;SHT31;61467;50.674;4.618;2023-04-28T11:13:46;18.70;68.42
72650;SHT31;61467;50.674;4.618;2023-04-28T11:16:14;18.81;69.51
72650;SHT31;61467;50.674;4.618;2023-04-28T11:18:59;18.42;68.04
72650;SHT31;61467;50.674;4.618;2023-04-28T11:21:29;18.16;68.94
72650;SHT31;61467;50.674;4.618;2023-04-28T11:23:57;18.17;68.37
72650;SHT31;61467;50.674;4.618;2023-04-28T11:26:24;18.20;69.02
72650;SHT31;61467;50.674;4.618;2023-04-28T11:28:54;18.05;69.44
72650;SHT31;61467;50.674;4.618;2023-04-28T11:31:22;18.32;69.67
72650;SHT31;61467;50.674;4.618;2023-04-28T11:33:53;18.28;68.62
72650;SHT31;61467;50.674;4.618;2023-04-28T11:36:27;18.30;69.30
72650;SHT31;61467;50.674;4.618;2023-04-28T11:38:55;18.16;68.48
72650;SHT31;61467;50.674;4.618;2023-04-28T11:41:23;18.34;68.12
72650;SHT31;61467;50.674;4.618;2023-04-28T11:43:50;18.33;68.15
72650;SHT31;61467;50.674;4.618;2023-04-28T11:46:20;18.68;67.32
72650;SHT31;61467;50.674;4.618;2023-04-28T11:48:59;18.71;65.59
72650;SHT31;61467;50.674;4.618;2023-04-28T11:51:34;18.50;66.24
72650;SHT31;61467;50.674;4.618;2023-04-28T11:54:01;18.39;66.03
72650;SHT31;61467;50.674;4.618;2023-04-28T11:56:28;18.25;66.19
72650;SHT31;61467;50.674;4.618;2023-04-28T11:59:04;18.33;65.05
72650;SHT31;61467;50.674;4.618;2023-04-28T12:01:34;18.02;66.37
72650;SHT31;61467;50.674;4.618;2023-04-28T12:04:09;17.95;66.48
72650;SHT31;61467;50.674;4.618;2023-04-28T12:06:37;17.91;66.28
72650;SHT31;61467;50.674;4.618;2023-04-28T12:09:14;17.67;67.01
72650;SHT31;61467;50.674;4.618;2023-04-28T12:11:51;17.75;67.45
72650;SHT31;61467;50.674;4.618;2023-04-28T12:14:19;17.72;66.85
72650;SHT31;61467;50.674;4.618;2023-04-28T12:16:47;17.78;65.86
72650;SHT31;61467;50.674;4.618;2023-04-28T12:19:15;17.92;66.18
72650;SHT31;61467;50.674;4.618;2023-04-28T12:21:43;17.95;65.64
72650;SHT31;61467;50.674;4.618;2023-04-28T12:24:18;18.10;67.10
72650;SHT31;61467;50.674;4.618;2023-04-28T12:26:45;18.08;66.28
72650;SHT31;61467;50.674;4.618;2023-04-28T12:29:34;17.92;65.58
72650;SHT31;61467;50.674;4.618;2023-04-28T12:32:07;17.88;66.53
72650;SHT31;61467;50.674;4.618;2023-04-28T12:34:34;17.79;66.31
72650;SHT31;61467;50.674;4.618;2023-04-28T12:37:02;18.10;65.26
72650;SHT31;61467;50.674;4.618;2023-04-28T12:39:30;18.25;65.04
72650;SHT31;61467;50.674;4.618;2023-04-28T12:41:57;18.34;64.88
72650;SHT31;61467;50.674;4.618;2023-04-28T12:44:25;18.42;65.14
72650;SHT31;61467;50.674;4.618;2023-04-28T12:46:53;18.75;63.84
72650;SHT31;61467;50.674;4.618;2023-04-28T12:49:22;18.97;64.28
72650;SHT31;61467;50.674;4.618;2023-04-28T12:51:48;19.10;63.27
72650;SHT31;61467;50.674;4.618;2023-04-28T12:54:15;18.57;64.48
72650;SHT31;61467;50.674;4.618;2023-04-28T12:56:42;18.09;66.38
72650;SHT31;61467;50.674;4.618;2023-04-28T12:59:09;18.30;66.29
72650;SHT31;61467;50.674;4.618;2023-04-28T13:01:36;18.05;65.34
72650;SHT31;61467;50.674;4.618;2023-04-28T13:04:03;18.05;66.49
72650;SHT31;61467;50.674;4.618;2023-04-28T13:06:32;17.98;65.95
72650;SHT31;61467;50.674;4.618;2023-04-28T13:08:59;17.89;66.35
72650;SHT31;61467;50.674;4.618;2023-04-28T13:11:27;17.96;66.73
72650;SHT31;61467;50.674;4.618;2023-04-28T13:13:54;17.85;66.27
72650;SHT31;61467;50.674;4.618;2023-04-28T13:16:21;17.62;66.52
72650;SHT31;61467;50.674;4.618;2023-04-28T13:18:53;17.37;67.32
72650;SHT31;61467;50.674;4.618;2023-04-28T13:21:21;17.23;67.32
72650;SHT31;61467;50.674;4.618;2023-04-28T13:23:49;17.26;67.62
72650;SHT31;61467;50.674;4.618;2023-04-28T13:26:16;17.12;67.46
72650;SHT31;61467;50.674;4.618;2023-04-28T13:28:44;17.07;67.17
72650;SHT31;61467;50.674;4.618;2023-04-28T13:31:11;17.04;67.03
72650;SHT31;61467;50.674;4.618;2023-04-28T13:33:38;17.35;66.20
72650;SHT31;61467;50.674;4.618;2023-04-28T13:36:05;17.41;65.84
72650;SHT31;61467;50.674;4.618;2023-04-28T13:38:32;17.43;65.17
72650;SHT31;61467;50.674;4.618;2023-04-28T13:41:01;17.27;63.71
72650;SHT31;61467;50.674;4.618;2023-04-28T13:43:27;17.26;65.05
72650;SHT31;61467;50.674;4.618;2023-04-28T13:45:54;17.27;64.52
72650;SHT31;61467;50.674;4.618;2023-04-28T13:48:23;17.07;65.15
72650;SHT31;61467;50.674;4.618;2023-04-28T13:50:52;17.09;65.16
72650;SHT31;61467;50.674;4.618;2023-04-28T13:53:19;16.93;65.35
72650;SHT31;61467;50.674;4.618;2023-04-28T13:55:48;16.94;64.93
72650;SHT31;61467;50.674;4.618;2023-04-28T13:58:16;17.03;65.72
72650;SHT31;61467;50.674;4.618;2023-04-28T14:00:43;16.94;65.58
72650;SHT31;61467;50.674;4.618;2023-04-28T14:03:10;16.87;66.37
72650;SHT31;61467;50.674;4.618;2023-04-28T14:05:37;16.97;65.24
72650;SHT31;61467;50.674;4.618;2023-04-28T14:08:04;16.93;65.56
72650;SHT31;61467;50.674;4.618;2023-04-28T14:10:31;16.86;65.76
72650;SHT31;61467;50.674;4.618;2023-04-28T14:12:59;16.96;66.20
72650;SHT31;61467;50.674;4.618;2023-04-28T14:15:27;17.09;65.72
72650;SHT31;61467;50.674;4.618;2023-04-28T14:17:55;16.80;66.39
72650;SHT31;61467;50.674;4.618;2023-04-28T14:20:22;16.73;66.68
72650;SHT31;61467;50.674;4.618;2023-04-28T14:22:49;16.87;66.06
72650;SHT31;61467;50.674;4.618;2023-04-28T14:25:16;17.09;65.87
72650;SHT31;61467;50.674;4.618;2023-04-28T14:27:44;17.06;65.65
72650;SHT31;61467;50.674;4.618;2023-04-28T14:30:11;16.65;66.02
72650;SHT31;61467;50.674;4.618;2023-04-28T14:32:40;16.56;66.69
72650;SHT31;61467;50.674;4.618;2023-04-28T14:35:07;16.76;66.63
72650;SHT31;61467;50.674;4.618;2023-04-28T14:37:34;16.55;67.43
72650;SHT31;61467;50.674;4.618;2023-04-28T14:40:02;16.65;67.19
72650;SHT31;61467;50.674;4.618;2023-04-28T14:42:31;16.66;67.34
72650;SHT31;61467;50.674;4.618;2023-04-28T14:45:00;16.65;67.12
72650;SHT31;61467;50.674;4.618;2023-04-28T14:47:28;16.84;67.17
72650;SHT31;61467;50.674;4.618;2023-04-28T14:49:56;16.79;67.38
72650;SHT31;61467;50.674;4.618;2023-04-28T14:52:23;16.79;67.39
72650;SHT31;61467;50.674;4.618;2023-04-28T14:54:52;16.75;67.87
72650;SHT31;61467;50.674;4.618;2023-04-28T14:57:19;16.80;66.89
72650;SHT31;61467;50.674;4.618;2023-04-28T14:59:46;16.77;67.91
72650;SHT31;61467;50.674;4.618;2023-04-28T15:02:13;16.86;67.66
72650;SHT31;61467;50.674;4.618;2023-04-28T15:04:40;16.96;67.49
72650;SHT31;61467;50.674;4.618;2023-04-28T15:07:08;17.19;67.12
72650;SHT31;61467;50.674;4.618;2023-04-28T15:09:35;17.67;66.28
72650;SHT31;61467;50.674;4.618;2023-04-28T15:12:02;17.91;64.11
72650;SHT31;61467;50.674;4.618;2023-04-28T15:14:29;17.99;64.52
72650;SHT31;61467;50.674;4.618;2023-04-28T15:16:56;17.95;64.35
72650;SHT31;61467;50.674;4.618;2023-04-28T15:19:23;17.67;64.36
72650;SHT31;61467;50.674;4.618;2023-04-28T15:21:50;17.52;65.04
72650;SHT31;61467;50.674;4.618;2023-04-28T15:24:19;17.50;64.25
72650;SHT31;61467;50.674;4.618;2023-04-28T15:26:46;17.70;64.77
72650;SHT31;61467;50.674;4.618;2023-04-28T15:29:13;17.62;64.74
72650;SHT31;61467;50.674;4.618;2023-04-28T15:31:40;17.67;64.90
72650;SHT31;61467;50.674;4.618;2023-04-28T15:34:08;17.47;64.64
72650;SHT31;61467;50.674;4.618;2023-04-28T15:36:36;17.45;64.74
72650;SHT31;61467;50.674;4.618;2023-04-28T15:39:03;17.38;64.80